Time;durP1;ratioP1;P1;durP2;ratioP2;P2;SDS_P1;SDS_P2;PMS_P1;PMS_P2;Temp;Humidity;BMP_temperature;BMP_pressure;BME280_temperature;BME280_humidity;BME280_pressure;Samples;Min_cycle;Max_cycle;Signal;HPM_P1;HPM_P2
2022/11/30 00:00:42;;;;;;;29.07;17.57;;;3.20;99.90;;;;;;4941772;28;20723;-72
2022/11/30 00:03:31;;;;;;;31.77;19.17;;;3.30;99.90;;;;;;4943362;28;20235;-72
2022/11/30 00:06:21;;;;;;;27.40;18.07;;;3.20;99.90;;;;;;4940431;28;20216;-72
2022/11/30 00:09:12;;;;;;;31.00;18.30;;;3.10;99.90;;;;;;4943139;28;20227;-73
2022/11/30 00:12:01;;;;;;;31.13;19.90;;;3.20;99.90;;;;;;4941800;28;20220;-72
2022/11/30 00:14:50;;;;;;;31.03;19.67;;;3.30;99.90;;;;;;4942265;28;20596;-72
2022/11/30 00:17:40;;;;;;;30.17;18.23;;;3.50;99.90;;;;;;4941135;28;20716;-71
2022/11/30 00:20:29;;;;;;;28.43;18.53;;;3.30;99.90;;;;;;4938970;28;20246;-72
2022/11/30 00:23:18;;;;;;;30.03;18.53;;;3.20;99.90;;;;;;4945427;28;20231;-71
2022/11/30 00:26:08;;;;;;;29.33;19.23;;;3.10;99.90;;;;;;4947157;28;20307;-72
2022/11/30 00:28:57;;;;;;;30.70;19.40;;;3.10;99.90;;;;;;4942247;28;20228;-73
2022/11/30 00:31:49;;;;;;;31.57;19.80;;;3.20;99.90;;;;;;4944737;28;20603;-71
2022/11/30 00:34:40;;;;;;;32.70;19.83;;;3.20;99.90;;;;;;4946010;28;20827;-73
2022/11/30 00:37:28;;;;;;;32.17;19.40;;;3.10;99.90;;;;;;4945792;28;20311;-72
2022/11/30 00:40:17;;;;;;;31.47;18.87;;;3.20;99.90;;;;;;4946971;28;20227;-71
2022/11/30 00:43:06;;;;;;;32.03;19.60;;;3.20;99.90;;;;;;4953938;28;20259;-73
2022/11/30 00:45:54;;;;;;;31.37;19.10;;;3.00;99.90;;;;;;4951988;28;20275;-72
2022/11/30 00:48:43;;;;;;;30.50;18.53;;;3.10;99.90;;;;;;4948158;28;20236;-72
2022/11/30 00:51:33;;;;;;;30.17;18.27;;;3.00;99.90;;;;;;4946598;28;20300;-73
2022/11/30 00:54:22;;;;;;;30.80;19.03;;;3.10;99.90;;;;;;4946131;28;20227;-73
2022/11/30 00:57:11;;;;;;;29.27;18.17;;;3.10;99.90;;;;;;4956567;28;21517;-72
2022/11/30 01:00:00;;;;;;;32.57;19.00;;;3.10;99.90;;;;;;4958284;28;20251;-73
2022/11/30 01:02:49;;;;;;;28.20;18.50;;;3.30;99.90;;;;;;4957186;28;20719;-73
2022/11/30 01:05:38;;;;;;;30.37;18.93;;;3.30;99.90;;;;;;4943233;28;20255;-73
2022/11/30 01:08:28;;;;;;;31.33;19.03;;;3.50;99.90;;;;;;4944536;28;20264;-73
2022/11/30 01:11:20;;;;;;;29.40;18.67;;;3.50;99.90;;;;;;4957309;28;20232;-72
2022/11/30 01:14:08;;;;;;;29.83;18.30;;;3.60;99.90;;;;;;4943518;28;20715;-72
2022/11/30 01:17:00;;;;;;;32.10;19.87;;;3.60;99.90;;;;;;4935802;28;20244;-74
2022/11/30 01:19:49;;;;;;;27.00;17.03;;;3.40;99.90;;;;;;4956699;28;20242;-73
2022/11/30 01:22:38;;;;;;;30.07;18.60;;;3.30;99.90;;;;;;4941812;28;23154;-72
2022/11/30 01:25:27;;;;;;;30.10;18.97;;;3.50;99.90;;;;;;4914921;29;20241;-72
2022/11/30 01:28:16;;;;;;;29.63;18.17;;;3.50;99.90;;;;;;4934952;28;20223;-73
2022/11/30 01:31:09;;;;;;;27.27;17.13;;;3.50;99.90;;;;;;4925365;28;20239;-73
2022/11/30 01:34:00;;;;;;;32.40;19.10;;;3.40;99.90;;;;;;4943796;28;20789;-73
2022/11/30 01:36:48;;;;;;;29.07;17.97;;;3.50;99.90;;;;;;4907797;29;21039;-73
2022/11/30 01:39:37;;;;;;;28.20;18.47;;;3.40;99.90;;;;;;4924735;29;20239;-73
2022/11/30 01:42:27;;;;;;;27.73;17.13;;;3.50;99.90;;;;;;4940095;28;20246;-73
2022/11/30 01:45:15;;;;;;;28.07;16.60;;;3.20;99.90;;;;;;4930335;28;20825;-72
2022/11/30 01:48:07;;;;;;;26.50;17.37;;;3.10;99.90;;;;;;4947278;28;20703;-73
2022/11/30 01:50:56;;;;;;;26.07;17.40;;;3.20;99.90;;;;;;4939483;28;20584;-73
2022/11/30 01:53:45;;;;;;;28.20;17.20;;;3.30;99.90;;;;;;4931940;28;20228;-73
2022/11/30 01:56:34;;;;;;;26.93;17.20;;;3.40;99.90;;;;;;4938251;28;20220;-73
2022/11/30 01:59:25;;;;;;;32.67;18.70;;;3.50;99.90;;;;;;4924370;28;20255;-73
2022/11/30 02:02:14;;;;;;;27.77;18.00;;;3.50;99.90;;;;;;4927519;29;20241;-73
2022/11/30 02:05:02;;;;;;;30.40;18.23;;;3.40;99.90;;;;;;4923331;28;20259;-73
2022/11/30 02:07:51;;;;;;;27.67;16.97;;;3.50;99.90;;;;;;4948893;28;21012;-74
2022/11/30 02:10:45;;;;;;;31.20;18.37;;;3.50;99.90;;;;;;4934880;28;20252;-73
2022/11/30 02:13:49;;;;;;;29.27;17.90;;;3.50;99.90;;;;;;4928998;29;20359;-73
2022/11/30 02:16:48;;;;;;;27.37;17.60;;;3.30;99.90;;;;;;4940572;28;20278;-73
2022/11/30 02:20:09;;;;;;;30.27;17.70;;;3.40;99.90;;;;;;4946993;28;20248;-73
2022/11/30 02:23:10;;;;;;;32.33;17.93;;;3.60;99.90;;;;;;4956731;28;20310;-73
2022/11/30 02:26:07;;;;;;;31.93;18.93;;;3.60;99.90;;;;;;4938450;28;20231;-73
2022/11/30 02:29:11;;;;;;;29.77;17.87;;;3.60;99.90;;;;;;4956162;28;20311;-73
2022/11/30 02:32:06;;;;;;;33.27;19.87;;;3.50;99.90;;;;;;4945301;28;20220;-73
2022/11/30 02:34:57;;;;;;;36.50;20.53;;;3.50;99.90;;;;;;4945814;28;20220;-73
2022/11/30 02:37:46;;;;;;;30.63;18.60;;;3.60;99.90;;;;;;4940855;28;20231;-73
2022/11/30 02:40:35;;;;;;;35.07;19.50;;;3.50;99.90;;;;;;4944519;28;20771;-72
2022/11/30 02:43:28;;;;;;;30.53;18.63;;;3.40;99.90;;;;;;4945247;28;20907;-73
2022/11/30 02:46:25;;;;;;;32.87;18.13;;;3.40;99.90;;;;;;4942914;28;20275;-73
2022/11/30 02:49:20;;;;;;;31.03;19.07;;;3.60;99.90;;;;;;4946930;28;20762;-73
2022/11/30 02:52:11;;;;;;;30.70;18.57;;;3.60;99.90;;;;;;4943796;28;20224;-72
2022/11/30 02:55:00;;;;;;;29.80;18.63;;;3.50;99.90;;;;;;4941035;28;20318;-70
2022/11/30 02:57:50;;;;;;;32.63;18.90;;;3.40;99.90;;;;;;4955551;28;20224;-71
2022/11/30 03:00:38;;;;;;;31.87;19.67;;;3.50;99.90;;;;;;4942097;28;20284;-72
2022/11/30 03:03:28;;;;;;;30.97;19.67;;;3.60;99.90;;;;;;4940375;28;20268;-71
2022/11/30 03:06:17;;;;;;;31.13;19.00;;;3.60;99.90;;;;;;4944641;28;20269;-73
2022/11/30 03:09:05;;;;;;;31.73;19.33;;;3.40;99.90;;;;;;4944922;28;20255;-72
2022/11/30 03:11:54;;;;;;;31.33;19.23;;;3.50;99.90;;;;;;4944721;28;20232;-73
2022/11/30 03:14:43;;;;;;;30.60;19.70;;;3.50;99.90;;;;;;4961022;28;20813;-72
2022/11/30 03:17:32;;;;;;;31.47;19.40;;;3.50;99.90;;;;;;4940912;28;20227;-72
2022/11/30 03:20:22;;;;;;;30.80;19.23;;;3.60;99.90;;;;;;4939921;28;20247;-72
2022/11/30 03:23:11;;;;;;;29.80;18.80;;;3.60;99.90;;;;;;4943637;28;20233;-72
2022/11/30 03:25:59;;;;;;;29.63;18.93;;;3.70;99.90;;;;;;4939083;28;20223;-72
2022/11/30 03:28:48;;;;;;;32.97;19.63;;;3.70;99.90;;;;;;4952037;28;20220;-73
2022/11/30 03:31:36;;;;;;;29.23;18.63;;;3.70;99.90;;;;;;4940205;28;20313;-73
2022/11/30 03:34:26;;;;;;;30.57;19.13;;;3.60;99.90;;;;;;4940886;28;20224;-72
2022/11/30 03:37:16;;;;;;;31.70;18.30;;;3.40;99.90;;;;;;4940333;28;20228;-72
2022/11/30 03:40:05;;;;;;;29.80;18.43;;;3.30;99.90;;;;;;4941391;28;20224;-72
2022/11/30 03:42:54;;;;;;;32.43;18.77;;;3.40;99.90;;;;;;4939120;28;20231;-72
2022/11/30 03:45:45;;;;;;;29.27;17.93;;;3.50;99.90;;;;;;4942245;28;20232;-74
2022/11/30 03:48:34;;;;;;;31.23;18.27;;;3.50;99.90;;;;;;4944266;28;20731;-72
2022/11/30 03:51:23;;;;;;;29.30;18.60;;;3.30;99.90;;;;;;4939229;28;20275;-73
2022/11/30 03:54:13;;;;;;;28.07;17.50;;;3.20;99.90;;;;;;4939896;28;20599;-74
2022/11/30 03:57:02;;;;;;;30.67;18.67;;;3.20;99.90;;;;;;4955479;28;20286;-73
2022/11/30 03:59:51;;;;;;;27.80;17.70;;;3.50;99.90;;;;;;4939527;28;20227;-73
2022/11/30 04:02:39;;;;;;;30.83;18.73;;;3.60;99.90;;;;;;4941173;28;20228;-73
2022/11/30 04:05:32;;;;;;;28.47;18.40;;;3.60;99.90;;;;;;4948355;28;20224;-71
2022/11/30 04:08:21;;;;;;;28.17;18.60;;;3.60;99.90;;;;;;4948685;28;20247;-73
2022/11/30 04:11:11;;;;;;;27.90;17.27;;;3.50;99.90;;;;;;4947277;28;20235;-73
2022/11/30 04:13:59;;;;;;;30.73;19.47;;;3.30;99.90;;;;;;4942207;28;20226;-72
2022/11/30 04:16:48;;;;;;;31.87;19.13;;;3.50;99.90;;;;;;4958844;28;20248;-72
2022/11/30 04:19:36;;;;;;;30.33;18.90;;;3.60;99.90;;;;;;4957341;28;20225;-74
2022/11/30 04:22:25;;;;;;;31.10;19.53;;;3.70;99.90;;;;;;4936922;28;20287;-73
2022/11/30 04:25:13;;;;;;;29.70;18.83;;;3.70;99.90;;;;;;4944610;28;20227;-72
2022/11/30 04:28:03;;;;;;;29.70;18.47;;;3.50;99.90;;;;;;4944990;28;20231;-73
2022/11/30 04:30:53;;;;;;;30.93;18.83;;;3.50;99.90;;;;;;4939724;28;20620;-73
2022/11/30 04:33:42;;;;;;;32.00;19.73;;;3.60;99.90;;;;;;4946123;28;20820;-73
2022/11/30 04:36:31;;;;;;;29.50;18.40;;;3.60;99.90;;;;;;4944349;28;20227;-72
2022/11/30 04:39:19;;;;;;;31.23;18.10;;;3.60;99.90;;;;;;4943641;28;20220;-72
2022/11/30 04:42:08;;;;;;;29.90;17.93;;;3.50;99.90;;;;;;4944822;28;20265;-73
2022/11/30 04:44:58;;;;;;;31.10;18.97;;;3.60;99.90;;;;;;4939418;28;20232;-73
2022/11/30 04:47:47;;;;;;;28.80;18.10;;;3.60;99.90;;;;;;4953834;28;20235;-73
2022/11/30 04:50:36;;;;;;;30.00;19.30;;;3.60;99.90;;;;;;4941486;28;20257;-72
2022/11/30 04:53:24;;;;;;;31.60;19.30;;;3.40;99.90;;;;;;4941838;28;20237;-74
2022/11/30 04:56:14;;;;;;;32.97;18.70;;;3.50;99.90;;;;;;4942537;28;20812;-73
2022/11/30 04:59:02;;;;;;;28.13;17.00;;;3.60;99.90;;;;;;4939730;28;20232;-73
2022/11/30 05:01:53;;;;;;;26.80;17.37;;;3.60;99.90;;;;;;4949757;28;20339;-73
2022/11/30 05:04:42;;;;;;;29.20;18.00;;;3.60;99.90;;;;;;4944856;28;20293;-73
2022/11/30 05:07:30;;;;;;;30.03;18.20;;;3.60;99.90;;;;;;4938918;28;20638;-73
2022/11/30 05:10:19;;;;;;;29.70;17.77;;;3.50;99.90;;;;;;4939611;28;20231;-73
2022/11/30 05:13:08;;;;;;;28.07;17.17;;;3.60;99.90;;;;;;4944707;28;20232;-73
2022/11/30 05:15:56;;;;;;;31.50;18.10;;;3.70;99.90;;;;;;4941239;28;20275;-73
2022/11/30 05:18:46;;;;;;;28.77;17.27;;;3.70;99.90;;;;;;4942396;28;20226;-72
2022/11/30 05:21:35;;;;;;;29.20;17.77;;;3.70;99.90;;;;;;4950268;28;20311;-72
2022/11/30 05:24:28;;;;;;;31.37;18.80;;;3.70;99.90;;;;;;4943524;28;20232;-73
2022/11/30 05:27:17;;;;;;;29.53;17.70;;;3.70;99.90;;;;;;4945263;28;20288;-73
2022/11/30 05:30:11;;;;;;;27.67;17.40;;;3.40;99.90;;;;;;4952720;28;20241;-72
2022/11/30 05:33:00;;;;;;;32.50;18.30;;;3.40;99.90;;;;;;4947748;28;20263;-72
2022/11/30 05:35:50;;;;;;;28.33;17.77;;;3.30;99.90;;;;;;4944384;28;20212;-72
2022/11/30 05:38:38;;;;;;;29.90;18.00;;;3.40;99.90;;;;;;4947282;28;20252;-71
2022/11/30 05:41:27;;;;;;;30.83;18.13;;;3.60;99.90;;;;;;4944103;28;20229;-72
2022/11/30 05:44:16;;;;;;;29.63;17.97;;;3.50;99.90;;;;;;4944132;28;20216;-73
2022/11/30 05:47:04;;;;;;;28.17;17.10;;;3.50;99.90;;;;;;4944641;28;20239;-72
2022/11/30 05:49:53;;;;;;;29.87;17.57;;;3.50;99.90;;;;;;4960212;28;20314;-70
2022/11/30 05:52:43;;;;;;;26.67;17.90;;;3.70;99.90;;;;;;4943501;28;20228;-73
2022/11/30 05:55:32;;;;;;;28.00;17.80;;;3.70;99.90;;;;;;4945446;28;20239;-71
2022/11/30 05:58:20;;;;;;;28.03;16.90;;;3.60;99.90;;;;;;4960520;28;20231;-72
2022/11/30 06:01:16;;;;;;;27.83;17.53;;;3.70;99.90;;;;;;4942126;28;20931;-72
2022/11/30 06:04:06;;;;;;;26.73;17.40;;;3.70;99.90;;;;;;4944214;28;20359;-71
2022/11/30 06:06:56;;;;;;;25.50;16.23;;;3.60;99.90;;;;;;4942025;28;20669;-72
2022/11/30 06:09:46;;;;;;;26.03;16.57;;;3.40;99.90;;;;;;4937283;28;20228;-73
2022/11/30 06:12:35;;;;;;;27.77;17.57;;;3.50;99.90;;;;;;4943916;28;20239;-73
2022/11/30 06:15:23;;;;;;;27.17;16.93;;;3.40;99.90;;;;;;4952294;28;20232;-73
2022/11/30 06:18:13;;;;;;;27.43;16.80;;;3.50;99.90;;;;;;4941137;28;20731;-74
2022/11/30 06:21:02;;;;;;;26.17;17.30;;;3.70;99.90;;;;;;4941827;28;20240;-74
2022/11/30 06:23:51;;;;;;;28.57;18.23;;;3.60;99.90;;;;;;4944562;28;20221;-74
2022/11/30 06:26:41;;;;;;;29.10;18.50;;;3.80;99.90;;;;;;4957561;28;20216;-74
2022/11/30 06:29:29;;;;;;;28.50;18.07;;;3.60;99.90;;;;;;4943892;28;20226;-73
2022/11/30 06:32:18;;;;;;;30.30;18.77;;;3.60;99.90;;;;;;4942552;28;20228;-73
2022/11/30 06:35:07;;;;;;;30.00;19.03;;;3.50;99.90;;;;;;4946454;28;20435;-71
2022/11/30 06:37:59;;;;;;;30.23;18.23;;;3.70;99.90;;;;;;4954839;28;20280;-73
2022/11/30 06:40:48;;;;;;;32.80;19.77;;;3.70;99.90;;;;;;4954715;28;20220;-73
2022/11/30 06:43:39;;;;;;;34.43;20.00;;;3.70;99.90;;;;;;4941602;28;20223;-72
2022/11/30 06:46:27;;;;;;;32.37;20.27;;;3.80;99.90;;;;;;4933173;28;20724;-73
2022/11/30 06:49:16;;;;;;;34.43;21.10;;;3.80;99.90;;;;;;4943607;28;20229;-72
2022/11/30 06:52:05;;;;;;;33.87;20.00;;;3.60;99.90;;;;;;4940303;28;20228;-73
2022/11/30 06:54:53;;;;;;;33.27;20.77;;;3.80;99.90;;;;;;4940823;28;20342;-73
2022/11/30 06:57:42;;;;;;;32.43;19.13;;;3.80;99.90;;;;;;4939980;28;20232;-74
2022/11/30 07:00:33;;;;;;;32.07;20.37;;;3.40;99.90;;;;;;4938199;28;20224;-73
2022/11/30 07:03:22;;;;;;;30.43;19.00;;;3.50;99.90;;;;;;4950606;28;21018;-73
2022/11/30 07:06:12;;;;;;;30.70;19.80;;;3.50;99.90;;;;;;4945754;28;20230;-73
2022/11/30 07:09:01;;;;;;;31.87;19.70;;;3.40;99.90;;;;;;4948855;28;20709;-70
2022/11/30 07:11:50;;;;;;;32.07;19.43;;;3.10;99.90;;;;;;4959287;28;20246;-71
2022/11/30 07:14:38;;;;;;;31.17;19.97;;;3.30;99.90;;;;;;4936426;28;20795;-71
2022/11/30 07:17:28;;;;;;;32.30;19.77;;;3.30;99.90;;;;;;4951325;28;20612;-71
2022/11/30 07:20:17;;;;;;;34.47;20.37;;;3.40;99.90;;;;;;4960555;28;20223;-70
2022/11/30 07:26:08;;;;;;;33.03;19.70;;;3.60;99.90;;;;;;4963095;28;20223;-71
2022/11/30 07:28:57;;;;;;;31.03;19.23;;;3.70;99.90;;;;;;4961442;28;20695;-71
2022/11/30 07:31:51;;;;;;;32.93;20.37;;;3.30;99.90;;;;;;4968054;28;20226;-71
2022/11/30 07:34:40;;;;;;;32.87;19.97;;;3.30;99.90;;;;;;4964835;28;20297;-71
2022/11/30 07:37:29;;;;;;;31.73;20.27;;;3.40;99.90;;;;;;4944483;28;20246;-71
2022/11/30 07:40:18;;;;;;;30.70;19.73;;;3.40;99.90;;;;;;4961743;28;20282;-72
2022/11/30 07:43:06;;;;;;;30.37;19.23;;;3.40;99.90;;;;;;4962404;28;20227;-71
2022/11/30 07:45:55;;;;;;;33.33;19.83;;;3.70;99.90;;;;;;4955652;28;20290;-71
2022/11/30 07:48:45;;;;;;;34.33;19.87;;;3.80;99.90;;;;;;4947962;28;20226;-70
2022/11/30 07:51:35;;;;;;;30.23;19.53;;;3.80;99.90;;;;;;4958643;28;20265;-73
2022/11/30 07:54:24;;;;;;;33.23;20.97;;;3.30;99.90;;;;;;4957484;28;20220;-73
2022/11/30 07:57:12;;;;;;;34.63;20.40;;;3.40;99.90;;;;;;4943539;28;20263;-72
2022/11/30 08:00:01;;;;;;;29.33;19.03;;;3.50;99.90;;;;;;4961615;28;20243;-70
2022/11/30 08:02:59;;;;;;;33.87;19.37;;;3.40;99.90;;;;;;4958916;28;20359;-71
2022/11/30 08:05:48;;;;;;;31.63;18.83;;;3.20;99.90;;;;;;4942905;28;20310;-72
2022/11/30 08:08:39;;;;;;;28.43;18.17;;;3.00;99.90;;;;;;4962359;28;20564;-71
2022/11/30 08:11:30;;;;;;;31.57;18.97;;;3.20;99.90;;;;;;4958469;28;20228;-72
2022/11/30 08:14:18;;;;;;;34.17;19.17;;;3.20;99.90;;;;;;4952542;28;20239;-73
2022/11/30 08:17:09;;;;;;;31.20;19.23;;;3.20;99.90;;;;;;4956472;28;20231;-73
2022/11/30 08:19:57;;;;;;;32.23;19.77;;;3.20;99.90;;;;;;4935813;28;20239;-73
2022/11/30 08:22:46;;;;;;;30.47;19.30;;;3.30;99.90;;;;;;4938717;28;21714;-72
2022/11/30 08:25:36;;;;;;;33.13;20.50;;;3.30;99.90;;;;;;4938846;28;20461;-75
2022/11/30 08:28:25;;;;;;;33.43;19.80;;;3.40;99.90;;;;;;4940615;28;20228;-73
2022/11/30 08:31:16;;;;;;;29.63;19.03;;;3.60;99.90;;;;;;4951704;28;20235;-73
2022/11/30 08:34:06;;;;;;;30.50;18.73;;;3.60;99.90;;;;;;4951886;28;20232;-72
2022/11/30 08:36:54;;;;;;;31.23;19.53;;;3.70;99.90;;;;;;4942674;28;20838;-70
2022/11/30 08:39:43;;;;;;;30.03;18.43;;;3.50;99.90;;;;;;4938940;28;20251;-73
2022/11/30 08:42:33;;;;;;;29.27;18.97;;;3.40;99.90;;;;;;4941719;28;20276;-72
2022/11/30 08:45:21;;;;;;;31.90;19.37;;;3.40;99.90;;;;;;4940259;28;20224;-71
2022/11/30 08:48:10;;;;;;;30.50;19.23;;;3.40;99.90;;;;;;4943617;28;20263;-72
2022/11/30 08:51:01;;;;;;;31.33;19.70;;;3.40;99.90;;;;;;4944243;28;20299;-71
2022/11/30 08:53:50;;;;;;;34.00;20.10;;;3.60;99.90;;;;;;4937508;28;20742;-73
2022/11/30 08:56:38;;;;;;;32.10;20.07;;;3.50;99.90;;;;;;4941335;28;20232;-71
2022/11/30 08:59:30;;;;;;;32.53;20.10;;;3.40;99.90;;;;;;4938209;28;20240;-72
2022/11/30 09:02:19;;;;;;;35.13;20.10;;;3.50;99.90;;;;;;4937979;28;20772;-71
2022/11/30 09:05:08;;;;;;;32.23;20.00;;;3.70;99.90;;;;;;4942430;28;20220;-71
2022/11/30 09:07:57;;;;;;;30.47;19.23;;;3.40;99.90;;;;;;4941795;28;20235;-72
2022/11/30 09:10:46;;;;;;;31.90;20.20;;;3.30;99.90;;;;;;4940127;28;20334;-73
2022/11/30 09:13:35;;;;;;;35.83;20.47;;;3.40;99.90;;;;;;4951723;28;21104;-72
2022/11/30 09:16:25;;;;;;;32.00;20.33;;;3.50;99.90;;;;;;4955374;28;20231;-70
2022/11/30 09:19:14;;;;;;;29.57;18.67;;;3.50;99.90;;;;;;4948785;28;20363;-72
2022/11/30 09:22:03;;;;;;;30.67;18.83;;;3.50;99.90;;;;;;4953717;28;20238;-71
2022/11/30 09:24:51;;;;;;;31.83;20.03;;;3.50;99.90;;;;;;4960547;28;20237;-72
2022/11/30 09:27:40;;;;;;;30.53;20.27;;;3.50;99.90;;;;;;4961642;28;20333;-71
2022/11/30 09:30:29;;;;;;;31.07;20.33;;;3.60;99.90;;;;;;4947105;28;20230;-71
2022/11/30 09:33:20;;;;;;;30.90;18.50;;;3.50;99.90;;;;;;4964295;28;20235;-72
2022/11/30 09:36:11;;;;;;;30.10;18.37;;;3.40;99.90;;;;;;4961769;28;21020;-72
2022/11/30 09:38:59;;;;;;;30.83;18.70;;;3.50;99.90;;;;;;4958265;28;20707;-72
2022/11/30 09:42:16;;;;;;;27.57;17.83;;;3.70;99.90;;;;;;4957551;28;20232;-71
2022/11/30 09:45:12;;;;;;;27.30;17.73;;;3.60;99.90;;;;;;4961187;28;20234;-74
2022/11/30 09:48:23;;;;;;;30.63;17.80;;;3.50;99.90;;;;;;4959632;28;20362;-74
2022/11/30 09:51:17;;;;;;;28.30;18.70;;;3.50;99.90;;;;;;4936568;28;20292;-72
2022/11/30 09:54:12;;;;;;;29.50;18.40;;;3.70;99.90;;;;;;4951534;28;20242;-73
2022/11/30 09:57:01;;;;;;;27.87;17.53;;;3.80;99.90;;;;;;4950431;28;20231;-72
2022/11/30 09:59:55;;;;;;;25.80;16.20;;;3.80;99.90;;;;;;4950951;28;20227;-73
2022/11/30 10:02:44;;;;;;;24.10;16.27;;;3.70;99.90;;;;;;4959795;28;20231;-73
2022/11/30 10:05:46;;;;;;;28.27;17.77;;;3.60;99.90;;;;;;4960278;28;20231;-74
2022/11/30 10:08:53;;;;;;;24.67;15.63;;;3.70;99.90;;;;;;4943264;28;20220;-74
2022/11/30 10:11:49;;;;;;;24.43;16.13;;;3.70;99.90;;;;;;4942440;28;20233;-74
2022/11/30 10:15:00;;;;;;;23.00;15.43;;;3.90;99.90;;;;;;4962012;28;20220;-71
2022/11/30 10:17:55;;;;;;;23.13;14.90;;;3.80;99.90;;;;;;4965006;28;20228;-74
2022/11/30 10:20:58;;;;;;;20.37;13.17;;;3.80;99.90;;;;;;4945126;28;20238;-71
2022/11/30 10:24:02;;;;;;;22.70;14.00;;;3.80;99.90;;;;;;4946232;28;20227;-71
2022/11/30 10:26:55;;;;;;;23.40;14.63;;;3.80;99.90;;;;;;4959333;28;20215;-73
2022/11/30 10:29:44;;;;;;;24.67;14.40;;;3.70;99.90;;;;;;4962830;28;20227;-73
2022/11/30 10:32:37;;;;;;;26.07;16.43;;;3.80;99.90;;;;;;4962848;28;20409;-75
2022/11/30 10:35:34;;;;;;;21.73;14.93;;;3.90;99.90;;;;;;4946796;28;20227;-76
2022/11/30 10:38:28;;;;;;;24.43;14.87;;;3.90;99.90;;;;;;4950880;28;20227;-74
2022/11/30 10:41:21;;;;;;;22.67;14.70;;;3.90;99.90;;;;;;4962192;28;20247;-75
2022/11/30 10:44:16;;;;;;;24.53;15.10;;;4.00;99.90;;;;;;4962907;28;20251;-76
2022/11/30 10:47:11;;;;;;;23.10;14.97;;;3.80;99.90;;;;;;4960867;28;20311;-74
2022/11/30 10:50:00;;;;;;;24.43;13.97;;;3.90;99.90;;;;;;4956904;28;20223;-75
2022/11/30 10:52:53;;;;;;;20.17;13.53;;;3.90;99.90;;;;;;4960097;28;20233;-77
2022/11/30 10:55:47;;;;;;;20.33;14.50;;;3.90;99.90;;;;;;4959097;28;20243;-75
2022/11/30 10:58:40;;;;;;;25.83;15.17;;;3.90;99.90;;;;;;4959544;28;20223;-73
2022/11/30 11:01:34;;;;;;;23.63;14.93;;;3.80;99.90;;;;;;4958839;28;20234;-74
2022/11/30 11:04:24;;;;;;;24.40;15.20;;;3.90;99.90;;;;;;4959425;28;20223;-74
2022/11/30 11:07:14;;;;;;;27.13;16.33;;;4.00;99.90;;;;;;4963972;28;20354;-72
2022/11/30 11:10:03;;;;;;;28.67;16.90;;;4.00;99.90;;;;;;4963953;28;20274;-76
2022/11/30 11:12:54;;;;;;;27.80;17.77;;;4.00;99.90;;;;;;4964405;28;20231;-72
2022/11/30 11:15:56;;;;;;;27.00;17.00;;;3.90;99.90;;;;;;4949639;28;20227;-70
2022/11/30 11:18:53;;;;;;;26.77;16.77;;;3.90;99.90;;;;;;4957372;28;20275;-69
2022/11/30 11:21:52;;;;;;;26.90;17.07;;;4.00;99.90;;;;;;4960585;28;20223;-74
2022/11/30 11:24:41;;;;;;;26.40;16.40;;;4.10;99.90;;;;;;4949463;28;20358;-73
2022/11/30 11:27:31;;;;;;;28.10;16.47;;;4.00;99.90;;;;;;4959796;28;20223;-73
2022/11/30 11:30:31;;;;;;;24.13;15.87;;;3.90;99.90;;;;;;4962590;28;20243;-75
2022/11/30 11:33:22;;;;;;;24.80;15.47;;;3.90;99.90;;;;;;4958930;28;20334;-75
2022/11/30 11:36:15;;;;;;;27.53;16.27;;;4.00;99.90;;;;;;4949263;28;20235;-74
2022/11/30 11:39:25;;;;;;;24.60;16.20;;;4.00;99.90;;;;;;4962822;28;20242;-75
2022/11/30 11:42:18;;;;;;;27.37;17.03;;;4.00;99.90;;;;;;4942934;28;20227;-74
2022/11/30 11:45:17;;;;;;;25.90;15.80;;;4.10;99.90;;;;;;4945064;28;20230;-75
2022/11/30 11:48:29;;;;;;;23.57;15.23;;;4.10;99.90;;;;;;4933807;28;20223;-75
2022/11/30 11:51:29;;;;;;;26.47;15.77;;;4.00;99.90;;;;;;4958569;28;20234;-75
2022/11/30 11:54:24;;;;;;;22.63;15.33;;;4.00;99.90;;;;;;4943098;28;20228;-76
2022/11/30 11:57:15;;;;;;;23.93;15.47;;;4.00;99.90;;;;;;4962293;28;20789;-75
2022/11/30 12:00:07;;;;;;;28.77;15.70;;;4.00;99.90;;;;;;4958402;28;20757;-77
2022/11/30 12:03:14;;;;;;;24.80;15.17;;;4.10;99.90;;;;;;4957306;28;20674;-78
2022/11/30 12:06:08;;;;;;;24.50;15.00;;;4.10;99.90;;;;;;4941412;28;20232;-77
2022/11/30 12:09:03;;;;;;;22.10;14.83;;;4.00;99.90;;;;;;4958477;28;20230;-78
2022/11/30 12:11:51;;;;;;;28.97;16.77;;;3.90;99.90;;;;;;4954761;28;20232;-77
2022/11/30 12:14:40;;;;;;;28.63;15.60;;;3.90;99.90;;;;;;4964298;28;20226;-75
2022/11/30 12:17:42;;;;;;;26.87;15.80;;;3.90;99.90;;;;;;4962445;28;20242;-78
2022/11/30 12:20:44;;;;;;;23.57;13.93;;;3.90;99.90;;;;;;4946326;28;20270;-79
2022/11/30 12:23:52;;;;;;;22.60;13.73;;;3.90;99.90;;;;;;4946381;28;20239;-77
2022/11/30 12:26:46;;;;;;;27.03;15.20;;;3.90;99.90;;;;;;4967765;28;20227;-75
2022/11/30 12:29:45;;;;;;;23.10;13.70;;;4.10;99.90;;;;;;4944730;28;20247;-76
2022/11/30 12:32:49;;;;;;;24.50;14.37;;;4.10;99.90;;;;;;4957084;28;20689;-76
2022/11/30 12:35:51;;;;;;;22.37;14.10;;;3.90;99.90;;;;;;4962217;28;20805;-76
2022/11/30 12:38:47;;;;;;;22.53;14.37;;;3.70;99.90;;;;;;4954145;28;22344;-79
2022/11/30 12:41:42;;;;;;;25.77;15.00;;;3.80;99.90;;;;;;4947731;28;20297;-78
2022/11/30 12:44:41;;;;;;;23.07;13.23;;;3.90;99.90;;;;;;4952831;28;20239;-77
2022/11/30 12:47:44;;;;;;;24.83;14.50;;;3.90;99.90;;;;;;4947465;28;20228;-77
2022/11/30 12:50:43;;;;;;;24.77;15.23;;;3.60;99.90;;;;;;4959244;28;20227;-77
2022/11/30 12:53:37;;;;;;;26.13;15.20;;;3.80;99.90;;;;;;4959720;28;20234;-77
2022/11/30 12:56:34;;;;;;;21.70;13.00;;;3.80;99.90;;;;;;4960239;28;20240;-77
2022/11/30 12:59:28;;;;;;;22.20;13.43;;;3.80;99.90;;;;;;4962492;28;20703;-75
2022/11/30 13:02:37;;;;;;;26.27;14.67;;;3.90;99.90;;;;;;4969746;28;20223;-75
2022/11/30 13:05:33;;;;;;;26.43;14.77;;;3.90;99.90;;;;;;4963582;28;20375;-75
2022/11/30 13:08:27;;;;;;;25.23;14.90;;;3.90;99.90;;;;;;4956013;28;20275;-75
2022/11/30 13:11:19;;;;;;;28.50;16.03;;;3.90;99.90;;;;;;4961240;28;20227;-75
2022/11/30 13:14:13;;;;;;;23.90;14.63;;;3.80;99.90;;;;;;4963760;28;20234;-75
2022/11/30 13:17:04;;;;;;;23.83;14.23;;;3.80;99.90;;;;;;4964155;28;20893;-75
2022/11/30 13:19:59;;;;;;;25.43;15.67;;;3.70;99.90;;;;;;4954507;28;20226;-74
2022/11/30 13:22:53;;;;;;;24.73;15.17;;;4.00;99.90;;;;;;4980304;28;20224;-75
2022/11/30 13:25:48;;;;;;;25.47;15.73;;;4.10;99.90;;;;;;4966976;28;20220;-74
2022/11/30 13:29:20;;;;;;;24.03;14.50;;;4.10;99.90;;;;;;4963944;28;20219;-77
2022/11/30 13:32:12;;;;;;;24.97;15.20;;;4.10;99.90;;;;;;4963521;28;20226;-75
2022/11/30 13:35:39;;;;;;;26.23;16.60;;;4.10;99.90;;;;;;4956394;28;20334;-77
2022/11/30 13:38:29;;;;;;;24.30;15.77;;;4.00;99.90;;;;;;4962475;28;20227;-76
2022/11/30 13:41:27;;;;;;;31.27;16.77;;;4.10;99.90;;;;;;4959009;28;20219;-76
2022/11/30 13:44:25;;;;;;;28.97;16.90;;;4.10;99.90;;;;;;4963373;28;20591;-76
2022/11/30 13:47:19;;;;;;;26.47;15.97;;;4.10;99.90;;;;;;4946923;28;20235;-75
2022/11/30 13:50:16;;;;;;;25.13;15.07;;;4.30;99.90;;;;;;4958754;28;20234;-77
2022/11/30 13:53:20;;;;;;;23.80;13.87;;;4.10;99.90;;;;;;4946903;28;20732;-76
2022/11/30 13:56:34;;;;;;;25.97;14.97;;;4.00;99.90;;;;;;4958817;28;20227;-75
2022/11/30 13:59:35;;;;;;;22.90;14.43;;;3.90;99.90;;;;;;4961154;28;20733;-77
2022/11/30 14:02:53;;;;;;;23.60;14.33;;;4.00;99.90;;;;;;4963885;28;20635;-73
2022/11/30 14:05:43;;;;;;;25.57;15.83;;;4.10;99.90;;;;;;4962856;28;20223;-77
2022/11/30 14:08:35;;;;;;;23.73;14.90;;;4.00;99.90;;;;;;4964506;28;20226;-78
2022/11/30 14:11:42;;;;;;;24.30;14.77;;;4.00;99.90;;;;;;4964089;28;20239;-75
2022/11/30 14:14:46;;;;;;;24.47;15.53;;;3.90;99.90;;;;;;4948801;28;20219;-75
2022/11/30 14:17:35;;;;;;;24.53;15.13;;;4.00;99.90;;;;;;4964602;28;20220;-75
2022/11/30 14:20:27;;;;;;;29.53;16.53;;;4.10;99.90;;;;;;4960498;28;20242;-76
2022/11/30 14:23:28;;;;;;;27.13;15.90;;;4.20;99.90;;;;;;4957214;28;20219;-76
2022/11/30 14:26:22;;;;;;;27.87;16.37;;;4.30;99.90;;;;;;4962574;28;20224;-75
2022/11/30 14:29:17;;;;;;;27.73;16.17;;;4.10;99.90;;;;;;4961585;28;20310;-76
2022/11/30 14:32:11;;;;;;;23.87;15.67;;;4.00;99.90;;;;;;4962682;28;20455;-74
2022/11/30 14:35:07;;;;;;;27.33;15.90;;;4.00;99.90;;;;;;4942400;28;20231;-75
2022/11/30 14:37:58;;;;;;;28.37;16.73;;;4.10;99.90;;;;;;4941211;28;21095;-73
2022/11/30 14:40:51;;;;;;;26.97;15.97;;;4.20;99.90;;;;;;4950261;28;20789;-75
2022/11/30 14:43:39;;;;;;;24.50;15.23;;;4.20;99.90;;;;;;4964043;28;20306;-76
2022/11/30 14:46:32;;;;;;;26.00;16.17;;;4.30;99.90;;;;;;4957441;28;20223;-75